Terminal Aerodrome Forecast
Issued by NWS Portland, OR

Home | Current Version | Previous Version | Text Only | Print | Product List | Glossary On
Versions: 1 2 3 4 5 6 7 8 9 10 11 12 13 14 15 16 17 18 19 20 21 22 23 24 25 26 27 28 29 30
591
FTUS46 KPQR 041312 AAA
TAFTTD
TAF AMD
KTTD 041312Z 0413/0512 VRB03KT P6SM OVC011
     FM041600 VRB03KT P6SM SCT015 BKN100
     FM042100 28006KT P6SM VCSH SCT040 BKN080
     FM050200 31009KT P6SM -SHRA BKN040 OVC060
     FM050600 29005KT P6SM SCT050 BKN080
     FM051000 28005KT P6SM OVC025=

USA.gov is the U.S. government's official web portal to all federal, state and local government web resources and services.